Manistee, Michigan
Current Conditions -  °F | °C
As of 1:55 AM on Monday 24 Nov 2014 (Local Time) from KMBL Reporting Station
Overcast Overcast  
Wind Chill: 44°   Ceiling: 2800
Heat Index: 46°   Visibility: 8mi
Dew Point: 45°   Wind: 5mph
Humidity: 93%   Direction: 90°E
Pressure: 29.06"   Gusts: NA
Location:  44.24°N, 86.32°W
Report Text: KMBL 240655Z AUTO 09004KT 8SM OVC028 08/07 A2906 RMK AO1 P0007
Loading
Personal Weather Stations






























Interactive Weather Map New forecast layout! Learn more

10-Day Weather Forecast

Advertisements
Track Severe Weather on mobile